sensor_id;sensor_type;location;lat;lon;timestamp;P1;durP1;ratioP1;P2;durP2;ratioP2
46463;SDS011;32161;48.148;-1.554;2023-07-16T00:02:11;20.25;;;8.95;;
46463;SDS011;32161;48.148;-1.554;2023-07-16T00:04:38;28.23;;;9.45;;
46463;SDS011;32161;48.148;-1.554;2023-07-16T00:07:06;17.58;;;8.75;;
46463;SDS011;32161;48.148;-1.554;2023-07-16T00:09:35;20.00;;;8.63;;
46463;SDS011;32161;48.148;-1.554;2023-07-16T00:12:04;25.23;;;9.15;;
46463;SDS011;32161;48.148;-1.554;2023-07-16T00:14:33;23.15;;;9.00;;
46463;SDS011;32161;48.148;-1.554;2023-07-16T00:17:01;17.98;;;8.70;;
46463;SDS011;32161;48.148;-1.554;2023-07-16T00:19:29;20.65;;;8.75;;
46463;SDS011;32161;48.148;-1.554;2023-07-16T00:21:56;18.15;;;7.90;;
46463;SDS011;32161;48.148;-1.554;2023-07-16T00:24:24;15.35;;;7.40;;
46463;SDS011;32161;48.148;-1.554;2023-07-16T00:26:52;21.95;;;8.43;;
46463;SDS011;32161;48.148;-1.554;2023-07-16T00:29:21;31.25;;;9.52;;
46463;SDS011;32161;48.148;-1.554;2023-07-16T00:31:48;24.83;;;8.32;;
46463;SDS011;32161;48.148;-1.554;2023-07-16T00:34:16;21.65;;;8.65;;
46463;SDS011;32161;48.148;-1.554;2023-07-16T00:36:43;24.45;;;8.27;;
46463;SDS011;32161;48.148;-1.554;2023-07-16T00:39:11;24.02;;;9.10;;
46463;SDS011;32161;48.148;-1.554;2023-07-16T00:41:39;22.75;;;8.60;;
46463;SDS011;32161;48.148;-1.554;2023-07-16T00:44:06;16.88;;;8.18;;
46463;SDS011;32161;48.148;-1.554;2023-07-16T00:46:35;23.50;;;9.68;;
46463;SDS011;32161;48.148;-1.554;2023-07-16T00:49:04;23.07;;;8.33;;
46463;SDS011;32161;48.148;-1.554;2023-07-16T00:51:32;25.42;;;8.90;;
46463;SDS011;32161;48.148;-1.554;2023-07-16T00:54:00;18.40;;;8.20;;
46463;SDS011;32161;48.148;-1.554;2023-07-16T00:56:28;22.63;;;9.15;;
46463;SDS011;32161;48.148;-1.554;2023-07-16T00:58:56;23.23;;;8.70;;
46463;SDS011;32161;48.148;-1.554;2023-07-16T01:01:23;30.02;;;8.43;;
46463;SDS011;32161;48.148;-1.554;2023-07-16T01:03:53;24.52;;;8.80;;
46463;SDS011;32161;48.148;-1.554;2023-07-16T01:06:24;24.05;;;8.50;;
46463;SDS011;32161;48.148;-1.554;2023-07-16T01:08:58;30.00;;;9.20;;
46463;SDS011;32161;48.148;-1.554;2023-07-16T01:11:31;28.45;;;8.27;;
46463;SDS011;32161;48.148;-1.554;2023-07-16T01:14:01;25.17;;;9.77;;
46463;SDS011;32161;48.148;-1.554;2023-07-16T01:16:29;28.95;;;9.35;;
46463;SDS011;32161;48.148;-1.554;2023-07-16T01:18:58;20.77;;;8.27;;
46463;SDS011;32161;48.148;-1.554;2023-07-16T01:21:35;25.55;;;8.70;;
46463;SDS011;32161;48.148;-1.554;2023-07-16T01:24:20;21.33;;;8.02;;
46463;SDS011;32161;48.148;-1.554;2023-07-16T01:27:28;25.90;;;8.63;;
46463;SDS011;32161;48.148;-1.554;2023-07-16T01:32:41;23.90;;;8.90;;
46463;SDS011;32161;48.148;-1.554;2023-07-16T01:35:10;30.23;;;9.05;;
46463;SDS011;32161;48.148;-1.554;2023-07-16T01:37:38;26.60;;;8.93;;
46463;SDS011;32161;48.148;-1.554;2023-07-16T01:40:07;25.13;;;8.88;;
46463;SDS011;32161;48.148;-1.554;2023-07-16T01:42:36;24.30;;;8.52;;
46463;SDS011;32161;48.148;-1.554;2023-07-16T01:45:04;26.05;;;8.70;;
46463;SDS011;32161;48.148;-1.554;2023-07-16T01:47:36;32.10;;;7.78;;
46463;SDS011;32161;48.148;-1.554;2023-07-16T01:50:16;33.22;;;8.95;;
46463;SDS011;32161;48.148;-1.554;2023-07-16T01:52:43;21.65;;;8.15;;
46463;SDS011;32161;48.148;-1.554;2023-07-16T01:55:11;27.23;;;9.07;;
46463;SDS011;32161;48.148;-1.554;2023-07-16T01:57:38;24.80;;;9.68;;
46463;SDS011;32161;48.148;-1.554;2023-07-16T02:00:07;32.05;;;9.88;;
46463;SDS011;32161;48.148;-1.554;2023-07-16T02:02:37;25.23;;;8.55;;
46463;SDS011;32161;48.148;-1.554;2023-07-16T02:05:04;22.80;;;9.45;;
46463;SDS011;32161;48.148;-1.554;2023-07-16T02:07:33;23.45;;;8.95;;
46463;SDS011;32161;48.148;-1.554;2023-07-16T02:10:00;23.63;;;9.27;;
46463;SDS011;32161;48.148;-1.554;2023-07-16T02:12:28;26.90;;;9.65;;
46463;SDS011;32161;48.148;-1.554;2023-07-16T02:14:56;30.88;;;9.95;;
46463;SDS011;32161;48.148;-1.554;2023-07-16T02:17:24;27.33;;;10.02;;
46463;SDS011;32161;48.148;-1.554;2023-07-16T02:19:53;28.60;;;9.60;;
46463;SDS011;32161;48.148;-1.554;2023-07-16T02:22:20;29.13;;;11.02;;
46463;SDS011;32161;48.148;-1.554;2023-07-16T02:24:48;30.48;;;9.60;;
46463;SDS011;32161;48.148;-1.554;2023-07-16T02:27:15;28.77;;;9.25;;
46463;SDS011;32161;48.148;-1.554;2023-07-16T02:29:43;30.13;;;10.18;;
46463;SDS011;32161;48.148;-1.554;2023-07-16T02:32:10;35.38;;;9.80;;
46463;SDS011;32161;48.148;-1.554;2023-07-16T02:34:38;32.03;;;9.48;;
46463;SDS011;32161;48.148;-1.554;2023-07-16T02:37:08;23.73;;;8.75;;
46463;SDS011;32161;48.148;-1.554;2023-07-16T02:39:35;30.05;;;9.45;;
46463;SDS011;32161;48.148;-1.554;2023-07-16T02:42:04;27.73;;;8.98;;
46463;SDS011;32161;48.148;-1.554;2023-07-16T02:44:32;25.08;;;9.45;;
46463;SDS011;32161;48.148;-1.554;2023-07-16T02:47:03;26.45;;;9.85;;
46463;SDS011;32161;48.148;-1.554;2023-07-16T02:49:31;23.10;;;8.45;;
46463;SDS011;32161;48.148;-1.554;2023-07-16T02:51:58;25.05;;;9.77;;
46463;SDS011;32161;48.148;-1.554;2023-07-16T02:54:27;24.98;;;8.43;;
46463;SDS011;32161;48.148;-1.554;2023-07-16T02:56:55;28.50;;;9.98;;
46463;SDS011;32161;48.148;-1.554;2023-07-16T02:59:22;27.95;;;9.80;;
46463;SDS011;32161;48.148;-1.554;2023-07-16T03:01:50;22.15;;;9.48;;
46463;SDS011;32161;48.148;-1.554;2023-07-16T03:04:18;26.38;;;9.90;;
46463;SDS011;32161;48.148;-1.554;2023-07-16T03:06:46;23.58;;;10.25;;
46463;SDS011;32161;48.148;-1.554;2023-07-16T03:09:14;26.10;;;9.05;;
46463;SDS011;32161;48.148;-1.554;2023-07-16T03:11:43;24.65;;;10.68;;
46463;SDS011;32161;48.148;-1.554;2023-07-16T03:14:10;25.48;;;9.98;;
46463;SDS011;32161;48.148;-1.554;2023-07-16T03:16:38;24.38;;;9.68;;
46463;SDS011;32161;48.148;-1.554;2023-07-16T03:19:06;30.00;;;9.65;;
46463;SDS011;32161;48.148;-1.554;2023-07-16T03:21:34;32.03;;;10.52;;
46463;SDS011;32161;48.148;-1.554;2023-07-16T03:24:01;27.25;;;10.68;;
46463;SDS011;32161;48.148;-1.554;2023-07-16T03:26:29;34.25;;;10.35;;
46463;SDS011;32161;48.148;-1.554;2023-07-16T03:28:58;24.80;;;10.50;;
46463;SDS011;32161;48.148;-1.554;2023-07-16T03:31:25;25.77;;;11.07;;
46463;SDS011;32161;48.148;-1.554;2023-07-16T03:33:53;24.58;;;9.75;;
46463;SDS011;32161;48.148;-1.554;2023-07-16T03:36:20;26.48;;;10.40;;
46463;SDS011;32161;48.148;-1.554;2023-07-16T03:38:48;25.73;;;10.63;;
46463;SDS011;32161;48.148;-1.554;2023-07-16T03:41:15;31.92;;;10.40;;
46463;SDS011;32161;48.148;-1.554;2023-07-16T03:43:43;25.83;;;10.35;;
46463;SDS011;32161;48.148;-1.554;2023-07-16T03:46:12;29.58;;;10.90;;
46463;SDS011;32161;48.148;-1.554;2023-07-16T03:48:39;27.45;;;10.30;;
46463;SDS011;32161;48.148;-1.554;2023-07-16T03:51:07;24.75;;;9.85;;
46463;SDS011;32161;48.148;-1.554;2023-07-16T03:53:34;22.67;;;10.15;;
46463;SDS011;32161;48.148;-1.554;2023-07-16T03:56:02;24.05;;;10.00;;
46463;SDS011;32161;48.148;-1.554;2023-07-16T03:58:30;28.98;;;11.43;;
46463;SDS011;32161;48.148;-1.554;2023-07-16T04:00:58;29.30;;;10.38;;
46463;SDS011;32161;48.148;-1.554;2023-07-16T04:03:27;24.98;;;11.45;;
46463;SDS011;32161;48.148;-1.554;2023-07-16T04:06:00;26.17;;;11.15;;
46463;SDS011;32161;48.148;-1.554;2023-07-16T04:08:29;32.00;;;10.40;;
46463;SDS011;32161;48.148;-1.554;2023-07-16T04:10:56;28.52;;;11.48;;
46463;SDS011;32161;48.148;-1.554;2023-07-16T04:13:24;27.92;;;11.85;;
46463;SDS011;32161;48.148;-1.554;2023-07-16T04:15:52;30.25;;;9.82;;
46463;SDS011;32161;48.148;-1.554;2023-07-16T04:18:21;27.85;;;10.30;;
46463;SDS011;32161;48.148;-1.554;2023-07-16T04:20:50;35.08;;;11.75;;
46463;SDS011;32161;48.148;-1.554;2023-07-16T04:23:17;23.63;;;9.68;;
46463;SDS011;32161;48.148;-1.554;2023-07-16T04:25:46;24.70;;;11.23;;
46463;SDS011;32161;48.148;-1.554;2023-07-16T04:28:13;27.70;;;11.15;;
46463;SDS011;32161;48.148;-1.554;2023-07-16T04:30:41;25.17;;;10.43;;
46463;SDS011;32161;48.148;-1.554;2023-07-16T04:33:09;29.33;;;9.60;;
46463;SDS011;32161;48.148;-1.554;2023-07-16T04:35:36;29.52;;;10.07;;
46463;SDS011;32161;48.148;-1.554;2023-07-16T04:38:06;21.65;;;9.63;;
46463;SDS011;32161;48.148;-1.554;2023-07-16T04:40:34;23.17;;;10.63;;
46463;SDS011;32161;48.148;-1.554;2023-07-16T04:43:01;37.05;;;11.48;;
46463;SDS011;32161;48.148;-1.554;2023-07-16T04:45:29;30.52;;;11.35;;
46463;SDS011;32161;48.148;-1.554;2023-07-16T04:47:56;28.00;;;11.15;;
46463;SDS011;32161;48.148;-1.554;2023-07-16T04:50:25;30.80;;;11.43;;
46463;SDS011;32161;48.148;-1.554;2023-07-16T04:52:52;28.27;;;11.48;;
46463;SDS011;32161;48.148;-1.554;2023-07-16T04:55:21;28.27;;;10.35;;
46463;SDS011;32161;48.148;-1.554;2023-07-16T04:57:49;30.40;;;12.35;;
46463;SDS011;32161;48.148;-1.554;2023-07-16T05:00:18;26.20;;;10.80;;
46463;SDS011;32161;48.148;-1.554;2023-07-16T05:02:46;29.75;;;11.88;;
46463;SDS011;32161;48.148;-1.554;2023-07-16T05:05:14;27.73;;;11.60;;
46463;SDS011;32161;48.148;-1.554;2023-07-16T05:07:42;29.58;;;11.40;;
46463;SDS011;32161;48.148;-1.554;2023-07-16T05:10:10;26.70;;;11.00;;
46463;SDS011;32161;48.148;-1.554;2023-07-16T05:12:39;30.85;;;10.90;;
46463;SDS011;32161;48.148;-1.554;2023-07-16T05:15:07;25.88;;;11.32;;
46463;SDS011;32161;48.148;-1.554;2023-07-16T05:17:36;31.73;;;12.95;;
46463;SDS011;32161;48.148;-1.554;2023-07-16T05:20:04;29.75;;;11.82;;
46463;SDS011;32161;48.148;-1.554;2023-07-16T05:22:34;22.50;;;11.80;;
46463;SDS011;32161;48.148;-1.554;2023-07-16T05:25:01;26.52;;;11.05;;
46463;SDS011;32161;48.148;-1.554;2023-07-16T05:27:30;26.95;;;11.43;;
46463;SDS011;32161;48.148;-1.554;2023-07-16T05:29:59;28.90;;;11.18;;
46463;SDS011;32161;48.148;-1.554;2023-07-16T05:32:26;30.30;;;12.30;;
46463;SDS011;32161;48.148;-1.554;2023-07-16T05:34:54;26.50;;;12.13;;
46463;SDS011;32161;48.148;-1.554;2023-07-16T05:37:21;22.75;;;11.35;;
46463;SDS011;32161;48.148;-1.554;2023-07-16T05:39:49;36.42;;;12.85;;
46463;SDS011;32161;48.148;-1.554;2023-07-16T05:42:16;30.75;;;11.95;;
46463;SDS011;32161;48.148;-1.554;2023-07-16T05:44:44;25.45;;;11.48;;
46463;SDS011;32161;48.148;-1.554;2023-07-16T05:47:15;29.88;;;11.35;;
46463;SDS011;32161;48.148;-1.554;2023-07-16T05:49:43;30.55;;;12.18;;
46463;SDS011;32161;48.148;-1.554;2023-07-16T05:52:10;33.75;;;12.45;;
46463;SDS011;32161;48.148;-1.554;2023-07-16T05:54:38;24.52;;;12.25;;
46463;SDS011;32161;48.148;-1.554;2023-07-16T05:57:06;31.50;;;12.23;;
46463;SDS011;32161;48.148;-1.554;2023-07-16T05:59:33;31.63;;;11.82;;
46463;SDS011;32161;48.148;-1.554;2023-07-16T06:02:02;25.17;;;10.80;;
46463;SDS011;32161;48.148;-1.554;2023-07-16T06:04:32;31.40;;;11.35;;
46463;SDS011;32161;48.148;-1.554;2023-07-16T06:06:59;27.95;;;11.65;;
46463;SDS011;32161;48.148;-1.554;2023-07-16T06:09:29;25.75;;;11.32;;
46463;SDS011;32161;48.148;-1.554;2023-07-16T06:11:56;32.85;;;12.27;;
46463;SDS011;32161;48.148;-1.554;2023-07-16T06:14:24;29.38;;;11.50;;
46463;SDS011;32161;48.148;-1.554;2023-07-16T06:16:51;26.20;;;11.88;;
46463;SDS011;32161;48.148;-1.554;2023-07-16T06:19:19;34.08;;;11.80;;
46463;SDS011;32161;48.148;-1.554;2023-07-16T06:21:48;31.55;;;11.73;;
46463;SDS011;32161;48.148;-1.554;2023-07-16T06:24:15;29.17;;;10.70;;
46463;SDS011;32161;48.148;-1.554;2023-07-16T06:26:43;33.75;;;12.18;;
46463;SDS011;32161;48.148;-1.554;2023-07-16T06:29:12;35.17;;;12.32;;
46463;SDS011;32161;48.148;-1.554;2023-07-16T06:31:42;28.80;;;11.57;;
46463;SDS011;32161;48.148;-1.554;2023-07-16T06:34:10;23.73;;;10.27;;
46463;SDS011;32161;48.148;-1.554;2023-07-16T06:36:37;33.78;;;11.63;;
46463;SDS011;32161;48.148;-1.554;2023-07-16T06:39:07;24.17;;;11.18;;
46463;SDS011;32161;48.148;-1.554;2023-07-16T06:41:35;26.42;;;11.68;;
46463;SDS011;32161;48.148;-1.554;2023-07-16T06:44:03;32.05;;;11.38;;
46463;SDS011;32161;48.148;-1.554;2023-07-16T06:46:30;22.77;;;10.43;;
46463;SDS011;32161;48.148;-1.554;2023-07-16T06:48:58;25.15;;;11.95;;
46463;SDS011;32161;48.148;-1.554;2023-07-16T06:51:25;27.95;;;11.10;;
46463;SDS011;32161;48.148;-1.554;2023-07-16T06:53:54;34.08;;;11.70;;
46463;SDS011;32161;48.148;-1.554;2023-07-16T06:56:23;26.55;;;10.88;;
46463;SDS011;32161;48.148;-1.554;2023-07-16T06:58:51;29.15;;;10.90;;
46463;SDS011;32161;48.148;-1.554;2023-07-16T07:01:18;29.83;;;11.20;;
46463;SDS011;32161;48.148;-1.554;2023-07-16T07:03:46;30.40;;;10.77;;
46463;SDS011;32161;48.148;-1.554;2023-07-16T07:06:13;27.45;;;10.90;;
46463;SDS011;32161;48.148;-1.554;2023-07-16T07:08:41;22.55;;;9.00;;
46463;SDS011;32161;48.148;-1.554;2023-07-16T07:11:08;20.77;;;8.55;;
46463;SDS011;32161;48.148;-1.554;2023-07-16T07:13:37;22.42;;;8.45;;
46463;SDS011;32161;48.148;-1.554;2023-07-16T07:16:05;20.65;;;8.00;;
46463;SDS011;32161;48.148;-1.554;2023-07-16T07:18:32;23.67;;;9.07;;
46463;SDS011;32161;48.148;-1.554;2023-07-16T07:21:00;21.38;;;8.30;;
46463;SDS011;32161;48.148;-1.554;2023-07-16T07:23:27;18.88;;;8.18;;
46463;SDS011;32161;48.148;-1.554;2023-07-16T07:25:55;23.65;;;8.55;;
46463;SDS011;32161;48.148;-1.554;2023-07-16T07:28:22;14.82;;;6.95;;
46463;SDS011;32161;48.148;-1.554;2023-07-16T07:30:51;14.60;;;7.45;;
46463;SDS011;32161;48.148;-1.554;2023-07-16T07:33:19;19.08;;;7.85;;
46463;SDS011;32161;48.148;-1.554;2023-07-16T07:35:47;20.67;;;7.80;;
46463;SDS011;32161;48.148;-1.554;2023-07-16T07:38:14;16.88;;;7.20;;
46463;SDS011;32161;48.148;-1.554;2023-07-16T07:40:42;17.65;;;8.43;;
46463;SDS011;32161;48.148;-1.554;2023-07-16T07:43:10;22.35;;;8.10;;
46463;SDS011;32161;48.148;-1.554;2023-07-16T07:45:37;20.45;;;7.45;;
46463;SDS011;32161;48.148;-1.554;2023-07-16T07:48:06;21.88;;;6.47;;
46463;SDS011;32161;48.148;-1.554;2023-07-16T07:50:34;16.00;;;6.50;;
46463;SDS011;32161;48.148;-1.554;2023-07-16T07:53:01;19.02;;;7.90;;
46463;SDS011;32161;48.148;-1.554;2023-07-16T07:55:29;17.17;;;6.10;;
46463;SDS011;32161;48.148;-1.554;2023-07-16T07:57:56;16.65;;;7.30;;
46463;SDS011;32161;48.148;-1.554;2023-07-16T08:00:24;15.90;;;6.13;;
46463;SDS011;32161;48.148;-1.554;2023-07-16T08:02:51;14.98;;;6.50;;
46463;SDS011;32161;48.148;-1.554;2023-07-16T08:05:20;15.68;;;6.18;;
46463;SDS011;32161;48.148;-1.554;2023-07-16T08:07:48;19.10;;;6.78;;
46463;SDS011;32161;48.148;-1.554;2023-07-16T08:10:17;17.83;;;5.57;;
46463;SDS011;32161;48.148;-1.554;2023-07-16T08:12:45;16.60;;;6.90;;
46463;SDS011;32161;48.148;-1.554;2023-07-16T08:15:12;15.55;;;5.70;;
46463;SDS011;32161;48.148;-1.554;2023-07-16T08:17:40;14.70;;;5.00;;
46463;SDS011;32161;48.148;-1.554;2023-07-16T08:20:09;17.00;;;4.85;;
46463;SDS011;32161;48.148;-1.554;2023-07-16T08:22:39;7.38;;;4.10;;
46463;SDS011;32161;48.148;-1.554;2023-07-16T08:25:07;12.90;;;4.35;;
46463;SDS011;32161;48.148;-1.554;2023-07-16T08:27:35;10.93;;;4.13;;
46463;SDS011;32161;48.148;-1.554;2023-07-16T08:30:04;9.02;;;3.80;;
46463;SDS011;32161;48.148;-1.554;2023-07-16T08:32:33;8.10;;;4.10;;
46463;SDS011;32161;48.148;-1.554;2023-07-16T08:35:00;9.00;;;3.55;;
46463;SDS011;32161;48.148;-1.554;2023-07-16T08:37:28;11.30;;;4.47;;
46463;SDS011;32161;48.148;-1.554;2023-07-16T08:39:57;10.30;;;3.45;;
46463;SDS011;32161;48.148;-1.554;2023-07-16T08:42:25;8.85;;;3.78;;
46463;SDS011;32161;48.148;-1.554;2023-07-16T08:44:53;9.05;;;3.75;;
46463;SDS011;32161;48.148;-1.554;2023-07-16T08:47:21;12.23;;;4.20;;
46463;SDS011;32161;48.148;-1.554;2023-07-16T08:49:50;6.72;;;3.88;;
46463;SDS011;32161;48.148;-1.554;2023-07-16T08:52:22;13.43;;;4.75;;
46463;SDS011;32161;48.148;-1.554;2023-07-16T08:54:49;9.77;;;4.53;;
46463;SDS011;32161;48.148;-1.554;2023-07-16T08:57:18;10.63;;;4.63;;
46463;SDS011;32161;48.148;-1.554;2023-07-16T08:59:47;12.80;;;4.57;;
46463;SDS011;32161;48.148;-1.554;2023-07-16T09:02:16;9.43;;;3.97;;
46463;SDS011;32161;48.148;-1.554;2023-07-16T09:04:45;6.97;;;3.80;;
46463;SDS011;32161;48.148;-1.554;2023-07-16T09:07:14;12.15;;;3.95;;
46463;SDS011;32161;48.148;-1.554;2023-07-16T09:09:42;9.65;;;3.90;;
46463;SDS011;32161;48.148;-1.554;2023-07-16T09:12:11;13.60;;;5.50;;
46463;SDS011;32161;48.148;-1.554;2023-07-16T09:14:41;10.85;;;5.10;;
46463;SDS011;32161;48.148;-1.554;2023-07-16T09:19:37;14.60;;;5.03;;
46463;SDS011;32161;48.148;-1.554;2023-07-16T09:22:05;10.50;;;4.88;;
46463;SDS011;32161;48.148;-1.554;2023-07-16T09:24:35;14.23;;;5.10;;
46463;SDS011;32161;48.148;-1.554;2023-07-16T09:27:03;10.00;;;4.72;;
46463;SDS011;32161;48.148;-1.554;2023-07-16T09:29:31;10.85;;;4.75;;
46463;SDS011;32161;48.148;-1.554;2023-07-16T09:32:00;13.10;;;5.43;;
46463;SDS011;32161;48.148;-1.554;2023-07-16T09:34:30;12.15;;;4.78;;
46463;SDS011;32161;48.148;-1.554;2023-07-16T09:36:58;10.82;;;5.07;;
46463;SDS011;32161;48.148;-1.554;2023-07-16T09:39:27;11.27;;;4.82;;
46463;SDS011;32161;48.148;-1.554;2023-07-16T09:41:55;11.18;;;5.30;;
46463;SDS011;32161;48.148;-1.554;2023-07-16T09:44:23;11.55;;;4.93;;
46463;SDS011;32161;48.148;-1.554;2023-07-16T09:46:51;13.77;;;5.28;;
46463;SDS011;32161;48.148;-1.554;2023-07-16T09:49:20;11.50;;;4.63;;
46463;SDS011;32161;48.148;-1.554;2023-07-16T09:51:47;9.05;;;4.72;;
46463;SDS011;32161;48.148;-1.554;2023-07-16T09:54:18;10.13;;;4.80;;
46463;SDS011;32161;48.148;-1.554;2023-07-16T09:56:47;9.45;;;5.07;;
46463;SDS011;32161;48.148;-1.554;2023-07-16T09:59:20;11.13;;;4.07;;
46463;SDS011;32161;48.148;-1.554;2023-07-16T10:01:50;13.27;;;4.90;;
46463;SDS011;32161;48.148;-1.554;2023-07-16T10:04:20;10.15;;;4.65;;
46463;SDS011;32161;48.148;-1.554;2023-07-16T10:06:48;9.98;;;4.50;;
46463;SDS011;32161;48.148;-1.554;2023-07-16T10:09:36;14.32;;;6.07;;
46463;SDS011;32161;48.148;-1.554;2023-07-16T10:12:13;11.02;;;4.55;;
46463;SDS011;32161;48.148;-1.554;2023-07-16T10:14:43;7.07;;;4.00;;
46463;SDS011;32161;48.148;-1.554;2023-07-16T10:17:14;9.02;;;4.53;;
46463;SDS011;32161;48.148;-1.554;2023-07-16T10:19:56;10.10;;;4.20;;
46463;SDS011;32161;48.148;-1.554;2023-07-16T10:22:32;10.75;;;3.70;;
46463;SDS011;32161;48.148;-1.554;2023-07-16T10:25:02;10.90;;;4.85;;
46463;SDS011;32161;48.148;-1.554;2023-07-16T10:27:34;15.02;;;4.82;;
46463;SDS011;32161;48.148;-1.554;2023-07-16T10:30:02;12.82;;;5.10;;
46463;SDS011;32161;48.148;-1.554;2023-07-16T10:32:32;7.22;;;4.18;;
46463;SDS011;32161;48.148;-1.554;2023-07-16T10:35:02;7.70;;;4.68;;
46463;SDS011;32161;48.148;-1.554;2023-07-16T10:39:59;13.25;;;4.63;;
46463;SDS011;32161;48.148;-1.554;2023-07-16T10:42:29;14.25;;;4.57;;
46463;SDS011;32161;48.148;-1.554;2023-07-16T10:44:58;13.52;;;4.55;;
46463;SDS011;32161;48.148;-1.554;2023-07-16T10:47:29;11.20;;;4.53;;
46463;SDS011;32161;48.148;-1.554;2023-07-16T10:49:58;7.50;;;4.30;;
46463;SDS011;32161;48.148;-1.554;2023-07-16T10:52:28;12.52;;;4.78;;
46463;SDS011;32161;48.148;-1.554;2023-07-16T10:54:55;9.57;;;4.82;;
46463;SDS011;32161;48.148;-1.554;2023-07-16T10:57:24;9.80;;;4.28;;
46463;SDS011;32161;48.148;-1.554;2023-07-16T10:59:52;17.52;;;4.50;;
46463;SDS011;32161;48.148;-1.554;2023-07-16T11:02:21;6.65;;;4.45;;
46463;SDS011;32161;48.148;-1.554;2023-07-16T11:04:51;8.32;;;4.45;;
46463;SDS011;32161;48.148;-1.554;2023-07-16T11:07:19;5.70;;;3.10;;
46463;SDS011;32161;48.148;-1.554;2023-07-16T11:09:49;5.78;;;3.00;;
